Bookmark and Share
Track history (hours):
 

Sovereign

Last reported at 2014-Apr-20 18:17 UTC. Time now 2014-Apr-21 07:25 UTC.
Position N 38°15' E 008°34'.

Length 268 m; draft 7.8 m.

Type: Passenger vessel. MMSI: 249539000.

NotesDate/timePositionNaut miles runAvg speedWind from/ knotsBaromVisibWave heightAir tempDewpointWater temp
2014-Apr-20 18:17N 38°15' E 008°34'2814.6
2014-Apr-20 16:20N 38°30' E 008°03'13513.3
2014-Apr-20 06:11N 39°41' E 005°35'1313.4
2014-Apr-20 05:12N 39°47' E 005°20'913.5
2014-Apr-20 04:33N 39°52' E 005°11'1313.2
2014-Apr-20 03:33N 39°59' E 004°56'1413.8
2014-Apr-20 02:33N 40°06' E 004°41'1413.7
2014-Apr-20 01:33N 40°14' E 004°25'1514.5
2014-Apr-20 00:33N 40°21' E 004°09'1414.1
2014-Apr-19 23:33N 40°29' E 003°53'1414.0
2014-Apr-19 22:33N 40°36' E 003°38'1514.4
2014-Apr-19 21:33N 40°43' E 003°21'1414.0
2014-Apr-19 20:33N 40°51' E 003°06'1413.8
2014-Apr-19 19:33N 40°58' E 002°50'1413.6
2014-Apr-19 18:33N 41°05' E 002°35'1413.5
2014-Apr-19 17:32N 41°12' E 002°19'11 1.0
2014-Apr-19 06:29N 41°22' E 002°11'7 7.2
2014-Apr-19 05:29N 41°18' E 002°19'1617.4
2014-Apr-19 04:33N 41°25' E 002°38'1616.5
2014-Apr-19 03:33N 41°33' E 002°57'1817.7
2014-Apr-19 02:33N 41°42' E 003°18'1717.3
2014-Apr-19 01:33N 41°50' E 003°38'1716.9
2014-Apr-19 00:33N 41°58' E 003°58'1717.2
2014-Apr-18 23:33N 42°06' E 004°19'1616.3
2014-Apr-18 22:33N 42°13' E 004°38'1817.5
2014-Apr-18 21:31N 42°21' E 005°00'1515.9
2014-Apr-18 20:33N 42°28' E 005°19'1716.6
2014-Apr-18 19:33N 42°36' E 005°39'1716.8
2014-Apr-18 18:33N 42°43' E 005°59'1716.5
2014-Apr-18 17:33N 42°51' E 006°19'1616.4
2014-Apr-18 16:33N 43°01' E 006°37'2316.5
2014-Apr-18 15:11N 43°18' E 006°58'1016.7
2014-Apr-18 14:33N 43°26' E 007°07'1615.7
2014-Apr-18 13:34N 43°39' E 007°18'3 1.3
2014-Apr-18 11:31N 43°42' E 007°19'0 0.0
2014-Apr-18 10:13N 43°42' E 007°19'0 0.1
2014-Apr-18 09:19N 43°42' E 007°19'0 0.0
2014-Apr-18 08:19N 43°42' E 007°19'0 0.1
2014-Apr-18 07:19N 43°42' E 007°19'0 0.0
2014-Apr-18 05:31N 43°42' E 007°19'1 1.3
2014-Apr-18 04:33N 43°40' E 007°19'1110.6
2014-Apr-18 03:33N 43°39' E 007°33'10 9.1
2014-Apr-18 02:29N 43°39' E 007°47'1112.2
2014-Apr-18 01:34N 43°38' E 008°02'1211.8
2014-Apr-18 00:33N 43°39' E 008°19'1212.1
2014-Apr-17 23:34N 43°43' E 008°34'1212.0
2014-Apr-17 22:34N 43°47' E 008°50'1212.3
2014-Apr-17 21:34N 43°52' E 009°06'1312.5
2014-Apr-17 20:34N 43°54' E 009°23'1313.0
2014-Apr-17 19:34N 43°58' E 009°40'10 9.9
2014-Apr-17 18:34N 44°03' E 009°52'3 3.3
2014-Apr-17 17:32N 44°06' E 009°50'0 0.0
2014-Apr-17 16:32N 44°06' E 009°50'0 0.0
2014-Apr-17 15:32N 44°06' E 009°50'0 0.0
2014-Apr-17 14:32N 44°06' E 009°50'0 0.0
2014-Apr-17 13:32N 44°06' E 009°50'0 0.0
2014-Apr-17 12:32N 44°06' E 009°50'0 0.0
2014-Apr-17 11:32N 44°06' E 009°50'0 0.0
2014-Apr-17 10:32N 44°06' E 009°50'0 0.0
2014-Apr-17 09:32N 44°06' E 009°50'0 0.0
2014-Apr-17 08:32N 44°06' E 009°50'0 0.0
2014-Apr-17 07:29N 44°06' E 009°50'0 0.0
2014-Apr-17 06:32N 44°06' E 009°50'0 0.2
2014-Apr-17 05:33N 44°06' E 009°50'10 9.7
2014-Apr-17 04:33N 43°57' E 009°55'1717.1
2014-Apr-17 03:33N 43°41' E 009°48'1616.2
2014-Apr-17 02:33N 43°25' E 009°45'1716.8
2014-Apr-17 01:32N 43°09' E 009°56'195 7.1
2014-Apr-15 22:07N 40°60' E 013°13'915.2
2014-Apr-15 21:33N 40°56' E 013°23'1515.0
2014-Apr-15 20:33N 40°46' E 013°38'1413.9
2014-Apr-15 19:33N 40°38' E 013°53'1414.3
2014-Apr-15 18:33N 40°44' E 014°10'21 1.4
2014-Apr-15 03:34N 40°26' E 013°55'23017.6
2014-Apr-14 14:30N 37°23' E 010°57'1617.4
2014-Apr-14 13:34N 37°10' E 010°44'92 5.0
2014-Apr-13 19:16N 38°09' E 009°15'1013.9
2014-Apr-13 18:33N 38°14' E 009°04'1514.2
2014-Apr-13 17:27N 38°22' E 008°47'1314.4
2014-Apr-13 16:33N 38°28' E 008°32'1714.6
2014-Apr-13 15:25N 38°36' E 008°14'324 9.4
2014-Apr-12 05:07N 41°22' E 002°11'2 2.8
2014-Apr-12 04:33N 41°20' E 002°10'1313.0
2014-Apr-12 03:33N 41°07' E 002°06'1615.5
2014-Apr-12 02:33N 40°54' E 001°57'1616.0
2014-Apr-12 01:33N 40°40' E 001°47'1616.4
2014-Apr-12 00:33N 40°25' E 001°37'1616.3
2014-Apr-11 23:33N 40°11' E 001°27'1615.9
2014-Apr-11 22:33N 39°56' E 001°18'12316.6
2014-Apr-11 15:09N 38°09' W 000°00'1017.1
2014-Apr-11 14:33N 38°01' W 000°07'1716.9
2014-Apr-11 13:33N 37°47' W 000°19'1717.0
2014-Apr-11 12:33N 37°33' W 000°31'2317.6
2014-Apr-11 11:13N 37°17' W 000°53'1115.4
2014-Apr-11 10:30N 37°10' W 001°04'3316.7
2014-Apr-11 08:32N 36°48' W 001°34'17616.0
2014-Apr-10 21:33N 36°06' W 005°07'1313.4
2014-Apr-10 20:33N 36°08' W 005°23'2 1.5
2014-Apr-10 19:31N 36°09' W 005°22'0 0.0
2014-Apr-10 18:33N 36°09' W 005°22'  

Dump ship's entire track history

sailing weather and tide predictions

Sovereign — 9HUE9 — position and weather